Time;durP1;ratioP1;P1;durP2;ratioP2;P2;SDS_P1;SDS_P2;PMS_P1;PMS_P2;Temp;Humidity;BMP_temperature;BMP_pressure;BME280_temperature;BME280_humidity;BME280_pressure;Samples;Min_cycle;Max_cycle;Signal;HPM_P1;HPM_P2
2021/03/31 00:02:34;;;;;;;11.13;9.63;;;;;;;;;;4936867;29;20103;-65
2021/03/31 00:05:20;;;;;;;13.18;9.63;;;;;;;;;;4946730;28;20065;-65
2021/03/31 00:08:05;;;;;;;12.57;9.85;;;;;;;;;;4964632;28;20054;-65
2021/03/31 00:10:52;;;;;;;12.38;9.95;;;;;;;;;;4955608;28;20083;-65
2021/03/31 00:13:38;;;;;;;14.63;10.23;;;;;;;;;;4955103;29;20051;-65
2021/03/31 00:16:23;;;;;;;13.15;10.18;;;;;;;;;;4955805;28;20063;-65
2021/03/31 00:19:09;;;;;;;16.17;10.45;;;;;;;;;;4955815;29;20444;-65
2021/03/31 00:21:54;;;;;;;13.18;10.25;;;;;;;;;;4955940;29;20055;-65
2021/03/31 00:24:40;;;;;;;17.75;12.73;;;;;;;;;;4960999;28;20403;-65
2021/03/31 00:27:25;;;;;;;16.55;12.63;;;;;;;;;;4974945;28;20078;-65
2021/03/31 00:30:15;;;;;;;17.10;12.48;;;;;;;;;;4974704;28;20047;-65
2021/03/31 00:33:00;;;;;;;15.85;12.20;;;;;;;;;;4974977;28;20050;-65
2021/03/31 00:35:45;;;;;;;15.48;12.10;;;;;;;;;;4973213;28;20051;-65
2021/03/31 00:38:31;;;;;;;15.30;12.75;;;;;;;;;;4974992;28;20078;-65
2021/03/31 00:41:17;;;;;;;16.58;11.77;;;;;;;;;;5014232;23;20045;-64
2021/03/31 00:44:02;;;;;;;15.52;11.55;;;;;;;;;;5013563;28;20513;-64
2021/03/31 00:46:47;;;;;;;14.65;11.43;;;;;;;;;;5032224;28;20041;-64
2021/03/31 00:49:33;;;;;;;13.80;11.25;;;;;;;;;;5029154;28;20425;-64
2021/03/31 00:52:18;;;;;;;15.00;11.43;;;;;;;;;;4993944;28;20046;-64
2021/03/31 00:55:04;;;;;;;15.48;11.85;;;;;;;;;;4979373;28;20092;-64
2021/03/31 00:57:49;;;;;;;13.38;10.82;;;;;;;;;;4993901;28;20046;-64
2021/03/31 01:00:35;;;;;;;14.43;10.05;;;;;;;;;;4992106;28;20047;-65
2021/03/31 01:03:20;;;;;;;14.23;10.70;;;;;;;;;;4979083;28;20046;-64
2021/03/31 01:06:06;;;;;;;12.57;9.65;;;;;;;;;;4993381;28;20038;-64
2021/03/31 01:08:51;;;;;;;13.95;10.32;;;;;;;;;;4993560;28;20079;-63
2021/03/31 01:11:55;;;;;;;14.77;11.25;;;;;;;;;;4993256;28;20050;-63
2021/03/31 01:14:50;;;;;;;15.32;10.65;;;;;;;;;;4991575;28;20392;-63
2021/03/31 01:17:40;;;;;;;11.95;9.57;;;;;;;;;;4993057;28;20047;-63
2021/03/31 01:20:44;;;;;;;11.32;9.20;;;;;;;;;;4993117;28;20047;-63
2021/03/31 01:23:48;;;;;;;12.57;9.80;;;;;;;;;;4993233;28;20042;-63
2021/03/31 01:26:37;;;;;;;14.95;10.10;;;;;;;;;;5010887;28;20116;-63
2021/03/31 01:29:42;;;;;;;19.77;10.82;;;;;;;;;;4997531;28;20069;-63
2021/03/31 01:32:35;;;;;;;13.48;9.98;;;;;;;;;;5012767;28;20046;-63
2021/03/31 01:35:21;;;;;;;14.25;9.70;;;;;;;;;;5011052;28;20046;-63
2021/03/31 01:38:06;;;;;;;14.18;10.48;;;;;;;;;;5012663;28;20053;-63
2021/03/31 01:40:53;;;;;;;12.30;9.40;;;;;;;;;;4997493;28;20092;-63
2021/03/31 01:43:38;;;;;;;13.40;9.63;;;;;;;;;;5012624;28;20066;-63
2021/03/31 01:46:24;;;;;;;13.77;10.23;;;;;;;;;;5011213;28;20050;-63
2021/03/31 01:49:09;;;;;;;15.93;10.45;;;;;;;;;;4997942;28;20041;-63
2021/03/31 01:51:56;;;;;;;14.88;10.38;;;;;;;;;;5012445;28;20046;-63
2021/03/31 01:54:42;;;;;;;16.85;11.27;;;;;;;;;;5012432;28;20050;-63
2021/03/31 01:57:27;;;;;;;14.73;10.00;;;;;;;;;;4993852;28;20498;-63
2021/03/31 02:00:14;;;;;;;16.42;11.07;;;;;;;;;;4992423;28;20050;-63
2021/03/31 02:02:59;;;;;;;14.82;11.43;;;;;;;;;;4993148;28;20526;-64
2021/03/31 02:05:45;;;;;;;16.83;11.23;;;;;;;;;;4991880;28;20117;-63
2021/03/31 02:08:30;;;;;;;16.25;11.70;;;;;;;;;;4997640;28;20054;-63
2021/03/31 02:11:16;;;;;;;17.23;9.80;;;;;;;;;;4997150;28;20053;-63
2021/03/31 02:14:01;;;;;;;14.63;10.70;;;;;;;;;;5012561;28;20478;-63
2021/03/31 02:16:47;;;;;;;16.13;10.32;;;;;;;;;;5010841;28;20046;-63
2021/03/31 02:19:32;;;;;;;17.83;10.15;;;;;;;;;;5011880;28;20042;-63
2021/03/31 02:22:18;;;;;;;14.35;11.15;;;;;;;;;;4997362;28;20053;-63
2021/03/31 02:25:04;;;;;;;17.80;11.20;;;;;;;;;;5012208;28;20053;-63
2021/03/31 02:27:49;;;;;;;16.10;10.70;;;;;;;;;;4984247;28;20058;-63
2021/03/31 02:30:35;;;;;;;15.02;10.77;;;;;;;;;;4991988;28;20050;-63
2021/03/31 02:33:20;;;;;;;16.27;10.73;;;;;;;;;;4992573;28;20062;-63
2021/03/31 02:36:05;;;;;;;15.25;10.70;;;;;;;;;;4991893;28;20132;-63
2021/03/31 02:38:50;;;;;;;17.63;11.75;;;;;;;;;;4993358;28;20057;-63
2021/03/31 02:41:36;;;;;;;14.00;10.73;;;;;;;;;;5013945;28;20046;-63
2021/03/31 02:44:22;;;;;;;16.83;11.23;;;;;;;;;;5015838;28;20038;-63
2021/03/31 02:47:07;;;;;;;15.32;11.35;;;;;;;;;;5013650;28;20413;-63
2021/03/31 02:49:53;;;;;;;13.25;10.68;;;;;;;;;;5015474;28;20405;-63
2021/03/31 02:52:39;;;;;;;14.85;11.63;;;;;;;;;;5000943;28;20053;-64
2021/03/31 02:55:24;;;;;;;15.35;11.95;;;;;;;;;;5015634;28;20394;-63
2021/03/31 02:58:09;;;;;;;17.13;13.77;;;;;;;;;;4993717;28;20047;-63
2021/03/31 03:00:55;;;;;;;13.00;10.32;;;;;;;;;;5008650;28;20125;-64
2021/03/31 03:03:40;;;;;;;14.43;10.60;;;;;;;;;;4995839;28;20054;-63
2021/03/31 03:06:26;;;;;;;17.35;9.55;;;;;;;;;;5008563;28;20042;-63
2021/03/31 03:09:11;;;;;;;17.05;11.98;;;;;;;;;;4995447;28;20050;-64
2021/03/31 03:11:56;;;;;;;16.13;12.55;;;;;;;;;;4995634;28;20414;-63
2021/03/31 03:14:46;;;;;;;15.68;12.05;;;;;;;;;;4995745;28;20077;-64
2021/03/31 03:17:31;;;;;;;18.50;12.93;;;;;;;;;;4994696;28;20050;-63
2021/03/31 03:20:17;;;;;;;17.33;12.88;;;;;;;;;;5005151;28;20042;-63
2021/03/31 03:23:02;;;;;;;19.52;13.77;;;;;;;;;;4995521;28;20126;-63
2021/03/31 03:25:47;;;;;;;17.70;13.73;;;;;;;;;;5008388;28;20141;-63
2021/03/31 03:28:32;;;;;;;19.60;14.07;;;;;;;;;;4995010;28;20121;-63
2021/03/31 03:31:17;;;;;;;22.33;14.38;;;;;;;;;;5000239;28;20140;-62
2021/03/31 03:34:02;;;;;;;18.95;14.75;;;;;;;;;;5015028;28;20058;-63
2021/03/31 03:36:47;;;;;;;20.13;14.95;;;;;;;;;;5000299;28;20085;-63
2021/03/31 03:39:32;;;;;;;21.85;14.50;;;;;;;;;;5007140;28;20062;-63
2021/03/31 03:42:18;;;;;;;20.70;14.75;;;;;;;;;;4995276;28;20104;-63
2021/03/31 03:45:04;;;;;;;20.33;14.57;;;;;;;;;;4994170;28;20042;-63
2021/03/31 03:47:50;;;;;;;22.75;15.55;;;;;;;;;;4994362;28;20054;-63
2021/03/31 03:50:35;;;;;;;22.63;15.07;;;;;;;;;;4993368;28;20414;-63
2021/03/31 03:53:20;;;;;;;24.45;15.82;;;;;;;;;;4994857;28;20097;-63
2021/03/31 03:56:14;;;;;;;22.10;15.13;;;;;;;;;;4995151;28;20418;-63
2021/03/31 03:59:01;;;;;;;24.38;15.48;;;;;;;;;;5002891;28;20057;-62
2021/03/31 04:01:46;;;;;;;21.25;15.07;;;;;;;;;;4998083;28;20132;-63
2021/03/31 04:04:32;;;;;;;25.77;15.85;;;;;;;;;;5014558;28;20070;-62
2021/03/31 04:07:17;;;;;;;21.10;15.85;;;;;;;;;;5014410;28;20041;-63
2021/03/31 04:10:03;;;;;;;32.10;16.80;;;;;;;;;;5008531;28;20058;-63
2021/03/31 04:12:49;;;;;;;23.92;16.40;;;;;;;;;;5014603;28;20417;-63
2021/03/31 04:15:34;;;;;;;23.95;16.10;;;;;;;;;;5014196;28;20116;-64
2021/03/31 04:18:19;;;;;;;25.10;17.20;;;;;;;;;;4999470;28;20042;-63
2021/03/31 04:21:05;;;;;;;25.42;17.02;;;;;;;;;;4997458;28;20046;-64
2021/03/31 04:23:50;;;;;;;42.85;18.00;;;;;;;;;;4992285;28;20046;-63
2021/03/31 04:26:36;;;;;;;31.55;16.73;;;;;;;;;;4994503;28;20042;-63
2021/03/31 04:29:21;;;;;;;24.33;16.77;;;;;;;;;;4979590;28;20516;-63
2021/03/31 04:32:07;;;;;;;21.73;15.82;;;;;;;;;;4991260;28;20081;-63
2021/03/31 04:34:52;;;;;;;20.83;15.15;;;;;;;;;;4999259;28;20128;-63
2021/03/31 04:37:39;;;;;;;24.88;16.85;;;;;;;;;;4999087;28;20045;-63
2021/03/31 04:40:24;;;;;;;23.48;16.42;;;;;;;;;;5013376;28;20052;-63
2021/03/31 04:43:10;;;;;;;24.73;15.45;;;;;;;;;;5011669;28;20042;-63
2021/03/31 04:45:59;;;;;;;21.75;15.07;;;;;;;;;;5013545;28;20057;-63
2021/03/31 04:48:44;;;;;;;25.50;15.43;;;;;;;;;;5013599;28;20116;-63
2021/03/31 04:51:29;;;;;;;22.42;15.75;;;;;;;;;;4996395;28;20053;-63
2021/03/31 04:54:14;;;;;;;25.85;15.82;;;;;;;;;;5013341;28;20049;-63
2021/03/31 04:57:00;;;;;;;18.95;14.40;;;;;;;;;;5013626;28;20045;-63
2021/03/31 04:59:45;;;;;;;23.45;16.10;;;;;;;;;;5013154;28;20066;-63
2021/03/31 05:02:31;;;;;;;21.90;14.60;;;;;;;;;;5011696;28;20044;-63
2021/03/31 05:05:16;;;;;;;21.17;15.40;;;;;;;;;;5013165;28;20054;-63
2021/03/31 05:08:01;;;;;;;23.60;15.55;;;;;;;;;;5013349;28;20085;-64
2021/03/31 05:10:47;;;;;;;22.83;14.82;;;;;;;;;;5012874;28;20058;-64
2021/03/31 05:13:32;;;;;;;23.88;15.60;;;;;;;;;;5011888;28;20494;-64
2021/03/31 05:16:17;;;;;;;25.35;15.95;;;;;;;;;;5012961;28;20425;-63
2021/03/31 05:19:03;;;;;;;23.83;16.83;;;;;;;;;;5010023;28;20042;-63
2021/03/31 05:21:48;;;;;;;29.90;18.60;;;;;;;;;;5005391;28;20050;-64
2021/03/31 05:24:34;;;;;;;24.13;15.88;;;;;;;;;;4992857;28;20046;-63
2021/03/31 05:27:19;;;;;;;25.30;15.40;;;;;;;;;;4993403;28;20097;-64
2021/03/31 05:30:08;;;;;;;22.35;16.65;;;;;;;;;;4993149;28;20042;-63
2021/03/31 05:32:54;;;;;;;25.70;17.00;;;;;;;;;;4993558;28;20066;-63
2021/03/31 05:35:39;;;;;;;23.38;16.60;;;;;;;;;;5012857;28;20405;-63
2021/03/31 05:38:24;;;;;;;23.27;15.68;;;;;;;;;;5012724;28;20037;-63
2021/03/31 05:41:10;;;;;;;31.38;17.85;;;;;;;;;;5012468;28;20045;-63
2021/03/31 05:43:55;;;;;;;29.95;18.63;;;;;;;;;;4990368;28;20050;-63
2021/03/31 05:46:42;;;;;;;30.77;16.63;;;;;;;;;;4978476;28;20046;-63
2021/03/31 05:49:29;;;;;;;25.88;17.23;;;;;;;;;;4978199;28;20043;-63
2021/03/31 05:52:14;;;;;;;26.55;17.90;;;;;;;;;;4992876;28;20054;-63
2021/03/31 05:55:03;;;;;;;27.60;16.58;;;;;;;;;;5004856;28;20061;-63
2021/03/31 05:57:48;;;;;;;26.05;18.30;;;;;;;;;;5012363;28;20042;-62
2021/03/31 06:00:33;;;;;;;29.27;18.13;;;;;;;;;;5007415;28;20046;-63
2021/03/31 06:03:21;;;;;;;26.90;17.55;;;;;;;;;;4992683;28;20529;-63
2021/03/31 06:06:06;;;;;;;29.33;17.73;;;;;;;;;;4992764;28;20057;-63
2021/03/31 06:08:51;;;;;;;28.20;17.48;;;;;;;;;;4992690;28;20425;-63
2021/03/31 06:11:50;;;;;;;29.52;18.52;;;;;;;;;;5002376;28;20053;-63
2021/03/31 06:14:37;;;;;;;27.27;17.50;;;;;;;;;;5012119;28;20065;-63
2021/03/31 06:17:22;;;;;;;26.85;17.13;;;;;;;;;;5012188;28;20568;-63
2021/03/31 06:20:08;;;;;;;28.08;17.40;;;;;;;;;;5012065;28;20049;-63
2021/03/31 06:23:08;;;;;;;25.33;16.25;;;;;;;;;;5010934;28;20498;-64
2021/03/31 06:26:04;;;;;;;26.30;17.05;;;;;;;;;;5011999;28;20046;-63
2021/03/31 06:28:53;;;;;;;28.00;18.25;;;;;;;;;;4999190;28;20050;-63
2021/03/31 06:31:40;;;;;;;29.65;19.13;;;;;;;;;;5009900;28;20068;-63
2021/03/31 06:34:31;;;;;;;26.10;17.73;;;;;;;;;;5012007;28;20154;-65
2021/03/31 06:37:23;;;;;;;28.35;18.77;;;;;;;;;;5012155;28;20081;-65
2021/03/31 06:40:09;;;;;;;28.08;19.45;;;;;;;;;;5010950;28;20042;-64
2021/03/31 06:42:54;;;;;;;27.50;17.25;;;;;;;;;;5038553;23;20069;-63
2021/03/31 06:45:49;;;;;;;27.95;18.73;;;;;;;;;;5030224;28;20041;-63
2021/03/31 06:48:37;;;;;;;31.02;18.00;;;;;;;;;;5012866;28;20038;-62
2021/03/31 06:51:29;;;;;;;25.50;18.80;;;;;;;;;;5016399;28;20046;-62
2021/03/31 06:54:23;;;;;;;33.33;19.52;;;;;;;;;;5012579;28;20128;-62
2021/03/31 06:57:09;;;;;;;26.40;19.27;;;;;;;;;;5013311;28;20046;-63
2021/03/31 07:00:01;;;;;;;25.52;17.55;;;;;;;;;;5011610;28;20054;-61
2021/03/31 07:02:46;;;;;;;24.73;17.67;;;;;;;;;;4992969;28;20046;-62
2021/03/31 07:05:32;;;;;;;28.75;19.08;;;;;;;;;;5009177;28;20124;-61
2021/03/31 07:08:18;;;;;;;28.05;19.50;;;;;;;;;;5011665;28;20049;-63
2021/03/31 07:11:03;;;;;;;29.10;19.63;;;;;;;;;;5010455;28;20038;-64
2021/03/31 07:13:48;;;;;;;25.35;18.83;;;;;;;;;;5011611;28;20075;-65
2021/03/31 07:16:34;;;;;;;28.67;18.52;;;;;;;;;;5011602;28;20486;-64
2021/03/31 07:19:19;;;;;;;26.98;19.10;;;;;;;;;;5013085;28;20113;-64
2021/03/31 07:22:04;;;;;;;28.88;19.27;;;;;;;;;;5011568;28;20046;-64
2021/03/31 07:24:49;;;;;;;26.10;18.20;;;;;;;;;;5013138;28;20132;-64
2021/03/31 07:27:35;;;;;;;25.77;18.55;;;;;;;;;;5014935;28;20042;-64
2021/03/31 07:30:24;;;;;;;21.48;17.75;;;;;;;;;;5014695;28;20042;-66
2021/03/31 07:33:13;;;;;;;26.60;18.58;;;;;;;;;;5013916;28;20046;-65
2021/03/31 07:35:58;;;;;;;31.95;20.67;;;;;;;;;;5016663;28;20497;-64
2021/03/31 07:38:44;;;;;;;29.48;19.85;;;;;;;;;;5015792;28;20050;-64
2021/03/31 07:41:30;;;;;;;30.95;20.05;;;;;;;;;;5015159;28;20128;-64
2021/03/31 07:44:28;;;;;;;29.85;21.17;;;;;;;;;;5015594;28;20046;-64
2021/03/31 07:47:14;;;;;;;28.77;20.40;;;;;;;;;;5015401;28;20096;-64
2021/03/31 07:49:59;;;;;;;29.77;20.58;;;;;;;;;;5014560;28;20050;-64
2021/03/31 07:52:48;;;;;;;27.58;20.88;;;;;;;;;;5014530;28;20053;-64
2021/03/31 07:55:37;;;;;;;27.65;20.27;;;;;;;;;;5015538;28;20082;-64
2021/03/31 07:58:24;;;;;;;29.42;20.42;;;;;;;;;;5013295;28;20050;-64
2021/03/31 08:01:10;;;;;;;30.83;20.05;;;;;;;;;;5013409;28;20485;-64
2021/03/31 08:03:55;;;;;;;28.45;20.58;;;;;;;;;;5007338;28;20489;-64
2021/03/31 08:06:41;;;;;;;25.30;20.75;;;;;;;;;;5008551;28;20038;-64
2021/03/31 08:09:28;;;;;;;26.38;19.45;;;;;;;;;;5008040;28;20173;-64
2021/03/31 08:12:13;;;;;;;28.80;19.63;;;;;;;;;;5013716;28;20457;-64
2021/03/31 08:14:58;;;;;;;25.17;18.85;;;;;;;;;;5012464;28;20046;-65
2021/03/31 08:17:44;;;;;;;26.17;19.45;;;;;;;;;;5015750;28;20066;-65
2021/03/31 08:20:29;;;;;;;29.63;20.85;;;;;;;;;;5013258;28;20455;-64
2021/03/31 08:23:14;;;;;;;31.75;20.70;;;;;;;;;;5008149;28;20065;-64
2021/03/31 08:25:59;;;;;;;26.48;20.33;;;;;;;;;;5013970;28;20050;-65
2021/03/31 08:28:45;;;;;;;25.10;19.10;;;;;;;;;;4998147;28;20116;-64
2021/03/31 08:31:31;;;;;;;27.30;19.92;;;;;;;;;;5007267;28;20050;-64
2021/03/31 08:34:16;;;;;;;28.42;19.58;;;;;;;;;;5008738;28;20504;-64
2021/03/31 08:37:05;;;;;;;25.83;20.25;;;;;;;;;;5012806;28;20042;-64
2021/03/31 08:39:51;;;;;;;28.35;21.27;;;;;;;;;;5013313;28;20497;-64
2021/03/31 08:42:36;;;;;;;26.92;20.73;;;;;;;;;;5011650;28;20509;-64
2021/03/31 08:45:25;;;;;;;26.75;20.67;;;;;;;;;;5011161;28;20038;-64
2021/03/31 08:48:11;;;;;;;31.88;21.17;;;;;;;;;;5005612;28;20463;-64
2021/03/31 08:50:56;;;;;;;28.80;20.55;;;;;;;;;;5000809;28;20132;-64
2021/03/31 08:53:41;;;;;;;33.08;22.48;;;;;;;;;;5004981;28;20050;-64
2021/03/31 08:56:26;;;;;;;28.10;20.70;;;;;;;;;;5001715;28;20067;-64
2021/03/31 08:59:11;;;;;;;28.05;21.15;;;;;;;;;;5012739;28;20049;-65
2021/03/31 09:01:57;;;;;;;27.92;20.88;;;;;;;;;;5004128;28;20042;-64
2021/03/31 09:04:42;;;;;;;28.25;21.33;;;;;;;;;;5011717;28;20038;-65
2021/03/31 09:07:27;;;;;;;33.10;21.45;;;;;;;;;;5010084;28;20042;-64
2021/03/31 09:10:13;;;;;;;28.38;21.67;;;;;;;;;;5005127;28;20050;-64
2021/03/31 09:12:58;;;;;;;26.38;21.13;;;;;;;;;;5007435;28;20047;-64
2021/03/31 09:15:53;;;;;;;31.88;22.15;;;;;;;;;;5012777;28;20042;-64
2021/03/31 09:18:39;;;;;;;28.38;20.77;;;;;;;;;;5005637;28;20049;-65
2021/03/31 09:21:29;;;;;;;29.80;21.85;;;;;;;;;;5011449;28;20045;-64
2021/03/31 09:24:19;;;;;;;28.25;20.85;;;;;;;;;;5012540;28;20426;-64
2021/03/31 09:27:08;;;;;;;31.02;21.13;;;;;;;;;;5012629;28;20045;-64
2021/03/31 09:29:55;;;;;;;31.88;22.38;;;;;;;;;;5011381;28;20049;-64
2021/03/31 09:32:53;;;;;;;28.88;21.40;;;;;;;;;;4995926;28;20069;-64
2021/03/31 09:35:38;;;;;;;29.42;21.98;;;;;;;;;;5011207;28;20046;-65
2021/03/31 09:38:27;;;;;;;37.22;23.38;;;;;;;;;;5009573;28;20054;-65
2021/03/31 09:41:12;;;;;;;33.50;23.05;;;;;;;;;;5010375;28;20042;-65
2021/03/31 09:43:58;;;;;;;37.85;23.52;;;;;;;;;;5011740;28;20063;-65
2021/03/31 09:46:44;;;;;;;31.92;23.35;;;;;;;;;;4996115;28;20132;-65
2021/03/31 09:49:29;;;;;;;35.42;22.27;;;;;;;;;;5008033;28;20041;-67
2021/03/31 09:52:14;;;;;;;33.33;22.90;;;;;;;;;;5011539;28;20052;-66
2021/03/31 09:55:05;;;;;;;32.13;22.45;;;;;;;;;;5003210;28;20489;-65
2021/03/31 09:57:51;;;;;;;33.60;24.13;;;;;;;;;;5002383;28;20038;-65
2021/03/31 10:00:37;;;;;;;31.75;23.70;;;;;;;;;;5009685;28;20478;-65
2021/03/31 10:03:24;;;;;;;30.60;24.08;;;;;;;;;;5011762;28;20518;-65
2021/03/31 10:06:19;;;;;;;29.90;23.98;;;;;;;;;;5012012;28;20656;-67
2021/03/31 10:09:14;;;;;;;29.92;23.98;;;;;;;;;;4998019;28;20038;-64
2021/03/31 10:11:59;;;;;;;31.25;24.50;;;;;;;;;;5006436;28;20073;-65
2021/03/31 10:14:47;;;;;;;32.15;25.52;;;;;;;;;;4994924;28;20410;-65
2021/03/31 10:17:33;;;;;;;30.55;24.98;;;;;;;;;;5007076;28;20046;-65
2021/03/31 10:20:18;;;;;;;33.25;25.17;;;;;;;;;;5010465;28;20038;-67
2021/03/31 10:23:04;;;;;;;31.60;24.77;;;;;;;;;;5005652;28;20046;-65
2021/03/31 10:25:49;;;;;;;36.15;25.67;;;;;;;;;;5003371;28;20132;-65
2021/03/31 10:28:35;;;;;;;32.25;25.35;;;;;;;;;;5011334;28;20084;-65
2021/03/31 10:31:25;;;;;;;32.83;25.83;;;;;;;;;;5010512;28;20113;-65
2021/03/31 10:34:12;;;;;;;31.80;26.20;;;;;;;;;;5009992;28;20061;-65
2021/03/31 10:40:27;;;;;;;33.75;25.80;;;;;;;;;;5002985;28;20104;-66
2021/03/31 10:52:24;;;;;;;33.65;26.00;;;;;;;;;;5010665;28;20042;-66
2021/03/31 10:55:09;;;;;;;35.40;26.55;;;;;;;;;;5011753;28;20049;-66
2021/03/31 10:57:54;;;;;;;35.70;26.33;;;;;;;;;;5009773;28;20128;-66
2021/03/31 11:00:40;;;;;;;30.83;25.17;;;;;;;;;;5003101;28;20075;-66
2021/03/31 11:03:25;;;;;;;34.83;25.67;;;;;;;;;;5014353;28;20041;-66
2021/03/31 11:06:10;;;;;;;31.50;26.17;;;;;;;;;;5014540;28;20042;-66
2021/03/31 11:08:56;;;;;;;33.47;25.15;;;;;;;;;;4999085;28;20049;-66
2021/03/31 11:11:41;;;;;;;38.42;26.98;;;;;;;;;;5003960;28;20041;-67
2021/03/31 11:14:29;;;;;;;36.75;26.67;;;;;;;;;;5013410;28;20042;-67
2021/03/31 11:20:54;;;;;;;38.95;25.48;;;;;;;;;;5015985;28;20058;-65
2021/03/31 11:26:43;;;;;;;36.33;26.48;;;;;;;;;;5011429;28;20049;-64
2021/03/31 11:29:50;;;;;;;36.15;27.25;;;;;;;;;;5014788;28;20605;-65
2021/03/31 11:32:35;;;;;;;33.85;26.27;;;;;;;;;;5015285;28;20506;-65
2021/03/31 11:35:21;;;;;;;38.75;27.45;;;;;;;;;;5016172;28;20121;-65
2021/03/31 11:38:06;;;;;;;36.03;28.08;;;;;;;;;;5016102;28;20179;-63
2021/03/31 11:40:51;;;;;;;36.65;27.55;;;;;;;;;;5001448;28;20038;-63
2021/03/31 11:43:37;;;;;;;38.17;28.25;;;;;;;;;;5012052;28;20053;-63
2021/03/31 11:46:22;;;;;;;33.85;27.27;;;;;;;;;;5009675;28;20041;-63
2021/03/31 11:49:08;;;;;;;34.03;26.33;;;;;;;;;;5012647;28;20037;-63
2021/03/31 11:51:54;;;;;;;32.80;26.45;;;;;;;;;;5015986;28;20672;-63
2021/03/31 11:54:39;;;;;;;36.05;26.85;;;;;;;;;;5008893;28;20092;-63
2021/03/31 11:57:24;;;;;;;33.33;26.52;;;;;;;;;;5015309;28;20054;-63
2021/03/31 12:00:30;;;;;;;40.10;27.33;;;;;;;;;;5014458;28;20681;-63
2021/03/31 12:03:15;;;;;;;29.95;24.60;;;;;;;;;;5015128;28;20453;-63
2021/03/31 12:06:20;;;;;;;29.10;21.85;;;;;;;;;;5011759;28;20046;-63
2021/03/31 12:09:08;;;;;;;28.60;22.58;;;;;;;;;;5014096;28;20085;-63
2021/03/31 12:11:53;;;;;;;40.47;26.20;;;;;;;;;;5013671;28;20050;-62
2021/03/31 12:14:39;;;;;;;29.42;23.20;;;;;;;;;;5012985;28;20470;-63
2021/03/31 12:17:24;;;;;;;30.70;21.88;;;;;;;;;;5003758;28;20072;-63
2021/03/31 12:20:10;;;;;;;28.25;21.88;;;;;;;;;;5013711;28;20069;-63
2021/03/31 12:22:56;;;;;;;28.15;21.33;;;;;;;;;;4994366;28;20054;-63
2021/03/31 12:25:44;;;;;;;26.42;19.98;;;;;;;;;;5007334;28;20049;-63
2021/03/31 12:28:31;;;;;;;29.88;21.92;;;;;;;;;;5013687;28;20041;-63
2021/03/31 12:31:16;;;;;;;29.67;22.05;;;;;;;;;;5013573;28;20041;-63
2021/03/31 12:34:22;;;;;;;30.15;22.77;;;;;;;;;;5011610;28;20050;-64
2021/03/31 12:37:07;;;;;;;33.75;22.27;;;;;;;;;;5011235;28;20500;-63
2021/03/31 12:39:54;;;;;;;34.38;23.02;;;;;;;;;;5011579;28;20053;-63
2021/03/31 12:42:39;;;;;;;22.75;18.35;;;;;;;;;;5009525;28;20413;-63
2021/03/31 12:45:25;;;;;;;20.73;17.15;;;;;;;;;;5007174;28;20188;-63
2021/03/31 12:48:10;;;;;;;30.63;23.00;;;;;;;;;;5011252;28;20049;-63
2021/03/31 12:51:03;;;;;;;19.45;15.05;;;;;;;;;;5011901;28;20049;-63
2021/03/31 12:54:19;;;;;;;24.85;19.17;;;;;;;;;;5031028;28;20054;-63
2021/03/31 12:57:05;;;;;;;25.13;19.70;;;;;;;;;;5011629;28;20449;-63
2021/03/31 13:00:11;;;;;;;25.38;19.92;;;;;;;;;;5009924;28;20050;-63
2021/03/31 13:02:56;;;;;;;20.50;15.73;;;;;;;;;;5020146;28;20046;-63
2021/03/31 13:06:01;;;;;;;14.00;12.25;;;;;;;;;;5010778;28;20132;-63
2021/03/31 13:08:49;;;;;;;10.55;8.25;;;;;;;;;;4998673;28;20041;-63
2021/03/31 13:11:35;;;;;;;12.57;9.73;;;;;;;;;;5013030;28;20042;-63
2021/03/31 13:21:58;;;;;;;21.25;13.77;;;;;;;;;;5010888;28;20073;-64
2021/03/31 13:32:47;;;;;;;35.63;18.92;;;;;;;;;;5007605;28;20042;-65
2021/03/31 13:35:39;;;;;;;25.17;17.90;;;;;;;;;;5012380;28;20506;-65
2021/03/31 13:38:58;;;;;;;;;;;;;;;;;;5012268;28;20421;-65
2021/03/31 13:41:44;;;;;;;22.92;18.55;;;;;;;;;;5006640;28;19925;-67
2021/03/31 13:44:29;;;;;;;32.75;20.88;;;;;;;;;;5014564;28;20050;-66
2021/03/31 13:47:24;;;;;;;24.17;18.60;;;;;;;;;;5012564;28;20042;-66
2021/03/31 13:50:32;;;;;;;24.70;18.60;;;;;;;;;;5011799;28;20053;-66
2021/03/31 13:53:20;;;;;;;20.73;16.45;;;;;;;;;;5013682;28;20123;-66
2021/03/31 13:56:13;;;;;;;29.30;18.27;;;;;;;;;;5013601;28;20053;-64
2021/03/31 13:58:59;;;;;;;24.00;19.77;;;;;;;;;;5010580;28;20502;-65
2021/03/31 14:01:44;;;;;;;21.45;18.58;;;;;;;;;;5007236;28;20049;-66
2021/03/31 14:04:29;;;;;;;23.48;19.58;;;;;;;;;;5009987;28;20054;-65
2021/03/31 14:07:15;;;;;;;25.40;18.73;;;;;;;;;;5007056;28;20041;-66
2021/03/31 14:10:00;;;;;;;21.38;18.48;;;;;;;;;;5007742;28;20041;-66
2021/03/31 14:12:47;;;;;;;22.02;17.98;;;;;;;;;;5000018;28;20619;-66
2021/03/31 14:15:34;;;;;;;22.60;18.02;;;;;;;;;;5006382;28;20050;-66
2021/03/31 14:18:39;;;;;;;20.98;17.60;;;;;;;;;;5005698;28;20061;-65
2021/03/31 14:21:26;;;;;;;24.80;19.08;;;;;;;;;;5003094;28;20132;-65
2021/03/31 14:24:31;;;;;;;17.85;14.70;;;;;;;;;;5001800;28;20425;-65
2021/03/31 14:27:36;;;;;;;22.75;18.25;;;;;;;;;;5002227;28;20395;-65
2021/03/31 14:30:42;;;;;;;16.48;13.32;;;;;;;;;;4998299;28;20049;-65
2021/03/31 14:33:27;;;;;;;20.98;16.90;;;;;;;;;;5005506;28;20054;-65
2021/03/31 14:36:12;;;;;;;23.17;18.63;;;;;;;;;;5004672;28;20046;-65
2021/03/31 14:39:18;;;;;;;25.30;18.17;;;;;;;;;;5006553;28;20140;-65
2021/03/31 14:42:04;;;;;;;18.65;15.48;;;;;;;;;;5010573;28;20042;-65
2021/03/31 14:44:49;;;;;;;21.50;16.35;;;;;;;;;;5012647;28;20045;-65
2021/03/31 14:47:58;;;;;;;18.30;15.45;;;;;;;;;;5012067;28;20045;-65
2021/03/31 14:51:03;;;;;;;25.67;13.93;;;;;;;;;;5012142;28;20046;-65
2021/03/31 14:59:44;;;;;;;12.35;9.82;;;;;;;;;;5007375;28;20053;-65
2021/03/31 15:02:30;;;;;;;13.32;10.38;;;;;;;;;;5011689;28;20045;-65
2021/03/31 15:05:35;;;;;;;14.40;11.43;;;;;;;;;;5005605;28;20046;-64
2021/03/31 15:08:20;;;;;;;28.80;11.27;;;;;;;;;;5015137;28;20113;-66
2021/03/31 15:11:05;;;;;;;14.95;11.80;;;;;;;;;;5008446;28;20045;-64
2021/03/31 15:13:51;;;;;;;18.30;12.60;;;;;;;;;;5014965;28;20441;-64
2021/03/31 15:16:56;;;;;;;20.50;11.65;;;;;;;;;;5014236;28;20053;-64
2021/03/31 15:22:53;;;;;;;23.77;15.60;;;;;;;;;;5014443;28;20125;-66
2021/03/31 15:25:57;;;;;;;19.08;15.45;;;;;;;;;;5008486;28;20054;-64
2021/03/31 15:28:43;;;;;;;20.25;16.33;;;;;;;;;;4999065;28;20496;-66
2021/03/31 15:31:28;;;;;;;18.80;14.52;;;;;;;;;;5012252;28;20490;-64
2021/03/31 15:34:34;;;;;;;19.67;14.00;;;;;;;;;;5013793;28;20073;-64
2021/03/31 15:37:39;;;;;;;17.65;13.95;;;;;;;;;;5013739;28;20135;-66
2021/03/31 15:40:24;;;;;;;19.10;14.15;;;;;;;;;;5012163;28;20056;-64
2021/03/31 15:43:09;;;;;;;18.67;14.40;;;;;;;;;;5012159;28;20161;-64
2021/03/31 15:45:55;;;;;;;18.40;14.95;;;;;;;;;;5008520;28;20125;-63
2021/03/31 15:48:40;;;;;;;20.00;15.05;;;;;;;;;;5009253;28;20116;-65
2021/03/31 15:51:46;;;;;;;22.08;16.08;;;;;;;;;;5011972;28;20399;-65
2021/03/31 15:54:51;;;;;;;20.80;16.15;;;;;;;;;;4998491;28;20490;-65
2021/03/31 15:57:37;;;;;;;19.42;15.23;;;;;;;;;;5014303;28;20049;-64
2021/03/31 16:00:23;;;;;;;21.00;16.13;;;;;;;;;;5013103;28;20057;-65
2021/03/31 16:03:11;;;;;;;20.52;15.68;;;;;;;;;;5011600;28;20108;-65
2021/03/31 16:05:57;;;;;;;22.13;14.77;;;;;;;;;;5014045;28;20038;-65
2021/03/31 16:08:43;;;;;;;24.02;15.75;;;;;;;;;;4998263;28;20042;-65
2021/03/31 16:11:48;;;;;;;18.35;13.75;;;;;;;;;;5009753;28;20133;-65
2021/03/31 16:14:36;;;;;;;21.15;13.48;;;;;;;;;;5013936;28;20506;-64
2021/03/31 16:17:22;;;;;;;18.52;13.63;;;;;;;;;;5013972;28;20048;-65
2021/03/31 16:20:07;;;;;;;21.77;15.20;;;;;;;;;;5013098;28;20125;-63
2021/03/31 16:22:52;;;;;;;21.55;13.80;;;;;;;;;;4997526;28;20038;-64
2021/03/31 16:25:37;;;;;;;30.60;15.23;;;;;;;;;;5005337;28;20058;-64
2021/03/31 16:28:35;;;;;;;35.53;15.45;;;;;;;;;;5013460;28;20045;-64
2021/03/31 16:31:28;;;;;;;28.88;17.73;;;;;;;;;;5008043;28;20045;-64
2021/03/31 16:34:13;;;;;;;32.47;17.77;;;;;;;;;;5018798;28;20046;-65
2021/03/31 16:36:59;;;;;;;26.75;16.83;;;;;;;;;;5001762;28;20069;-65
2021/03/31 16:39:45;;;;;;;25.35;17.60;;;;;;;;;;5010258;28;20081;-64
2021/03/31 16:42:30;;;;;;;36.83;17.02;;;;;;;;;;5010577;28;20446;-64
2021/03/31 16:45:15;;;;;;;29.63;17.73;;;;;;;;;;5011887;28;20069;-64
2021/03/31 16:48:00;;;;;;;28.75;17.77;;;;;;;;;;5013354;28;20577;-64
2021/03/31 16:50:46;;;;;;;27.02;17.77;;;;;;;;;;5011132;28;20498;-64
2021/03/31 16:53:31;;;;;;;25.85;17.45;;;;;;;;;;4996921;28;20055;-64
2021/03/31 16:56:17;;;;;;;31.55;16.60;;;;;;;;;;5002854;28;20093;-64
2021/03/31 16:59:04;;;;;;;29.25;17.15;;;;;;;;;;4996127;28;20058;-63
2021/03/31 17:01:49;;;;;;;22.50;16.52;;;;;;;;;;5000001;28;20045;-63
2021/03/31 17:04:34;;;;;;;23.50;14.75;;;;;;;;;;5010057;28;20124;-64